sensor_id;sensor_type;location;lat;lon;timestamp;P1;durP1;ratioP1;P2;durP2;ratioP2
21751;SDS011;11038;50.940;20.564;2022-08-01T00:00:17;143.40;;;28.53;;
21751;SDS011;11038;50.940;20.564;2022-08-01T00:02:10;102.40;;;27.90;;
21751;SDS011;11038;50.940;20.564;2022-08-01T00:03:42;134.20;;;31.20;;
21751;SDS011;11038;50.940;20.564;2022-08-01T00:05:14;119.13;;;31.87;;
21751;SDS011;11038;50.940;20.564;2022-08-01T00:06:47;101.07;;;30.23;;
21751;SDS011;11038;50.940;20.564;2022-08-01T00:08:19;141.50;;;31.13;;
21751;SDS011;11038;50.940;20.564;2022-08-01T00:09:51;93.87;;;28.67;;
21751;SDS011;11038;50.940;20.564;2022-08-01T00:11:24;65.73;;;30.13;;
21751;SDS011;11038;50.940;20.564;2022-08-01T00:12:56;98.10;;;31.67;;
21751;SDS011;11038;50.940;20.564;2022-08-01T00:14:28;49.57;;;28.00;;
21751;SDS011;11038;50.940;20.564;2022-08-01T00:16:03;54.87;;;28.97;;
21751;SDS011;11038;50.940;20.564;2022-08-01T00:17:35;40.83;;;27.43;;
21751;SDS011;11038;50.940;20.564;2022-08-01T00:19:08;43.37;;;28.43;;
21751;SDS011;11038;50.940;20.564;2022-08-01T00:20:41;44.97;;;26.43;;
21751;SDS011;11038;50.940;20.564;2022-08-01T00:22:13;38.37;;;24.70;;
21751;SDS011;11038;50.940;20.564;2022-08-01T00:23:45;40.90;;;25.50;;
21751;SDS011;11038;50.940;20.564;2022-08-01T00:25:17;40.87;;;24.17;;
21751;SDS011;11038;50.940;20.564;2022-08-01T00:26:50;36.87;;;24.23;;
21751;SDS011;11038;50.940;20.564;2022-08-01T00:28:22;29.37;;;22.03;;
21751;SDS011;11038;50.940;20.564;2022-08-01T00:29:55;26.30;;;19.87;;
21751;SDS011;11038;50.940;20.564;2022-08-01T00:31:44;23.33;;;17.97;;
21751;SDS011;11038;50.940;20.564;2022-08-01T00:33:16;24.23;;;17.50;;
21751;SDS011;11038;50.940;20.564;2022-08-01T00:34:49;23.17;;;17.93;;
21751;SDS011;11038;50.940;20.564;2022-08-01T00:36:21;22.47;;;17.30;;
21751;SDS011;11038;50.940;20.564;2022-08-01T00:37:53;26.80;;;18.20;;
21751;SDS011;11038;50.940;20.564;2022-08-01T00:39:26;24.30;;;18.67;;
21751;SDS011;11038;50.940;20.564;2022-08-01T00:40:58;25.30;;;18.93;;
21751;SDS011;11038;50.940;20.564;2022-08-01T00:42:30;26.27;;;18.03;;
21751;SDS011;11038;50.940;20.564;2022-08-01T00:44:04;26.43;;;19.20;;
21751;SDS011;11038;50.940;20.564;2022-08-01T00:45:37;27.37;;;19.10;;
21751;SDS011;11038;50.940;20.564;2022-08-01T00:47:09;29.10;;;19.37;;
21751;SDS011;11038;50.940;20.564;2022-08-01T00:48:41;29.53;;;19.37;;
21751;SDS011;11038;50.940;20.564;2022-08-01T00:50:13;28.37;;;19.67;;
21751;SDS011;11038;50.940;20.564;2022-08-01T00:51:46;35.57;;;21.03;;
21751;SDS011;11038;50.940;20.564;2022-08-01T00:53:19;29.40;;;20.07;;
21751;SDS011;11038;50.940;20.564;2022-08-01T00:54:51;31.93;;;20.33;;
21751;SDS011;11038;50.940;20.564;2022-08-01T00:56:24;33.93;;;22.00;;
21751;SDS011;11038;50.940;20.564;2022-08-01T00:57:59;57.23;;;22.20;;
21751;SDS011;11038;50.940;20.564;2022-08-01T00:59:36;56.03;;;23.87;;
21751;SDS011;11038;50.940;20.564;2022-08-01T01:01:11;70.47;;;23.07;;
21751;SDS011;11038;50.940;20.564;2022-08-01T01:02:44;72.73;;;23.90;;
21751;SDS011;11038;50.940;20.564;2022-08-01T01:04:17;101.87;;;24.87;;
21751;SDS011;11038;50.940;20.564;2022-08-01T01:08:22;65.63;;;23.33;;
21751;SDS011;11038;50.940;20.564;2022-08-01T01:10:00;110.67;;;25.07;;
21751;SDS011;11038;50.940;20.564;2022-08-01T01:13:52;72.70;;;23.70;;
21751;SDS011;11038;50.940;20.564;2022-08-01T01:17:38;164.63;;;27.60;;
21751;SDS011;11038;50.940;20.564;2022-08-01T01:19:23;141.20;;;30.03;;
21751;SDS011;11038;50.940;20.564;2022-08-01T01:21:06;60.10;;;24.67;;
21751;SDS011;11038;50.940;20.564;2022-08-01T01:27:57;162.57;;;34.17;;
21751;SDS011;11038;50.940;20.564;2022-08-01T01:29:56;127.33;;;28.93;;
21751;SDS011;11038;50.940;20.564;2022-08-01T01:31:36;147.27;;;31.87;;
21751;SDS011;11038;50.940;20.564;2022-08-01T01:33:27;128.50;;;31.67;;
21751;SDS011;11038;50.940;20.564;2022-08-01T01:35:05;157.07;;;30.00;;
21751;SDS011;11038;50.940;20.564;2022-08-01T01:36:45;151.40;;;29.70;;
21751;SDS011;11038;50.940;20.564;2022-08-01T01:38:21;186.63;;;32.43;;
21751;SDS011;11038;50.940;20.564;2022-08-01T01:40:01;166.97;;;32.77;;
21751;SDS011;11038;50.940;20.564;2022-08-01T01:41:36;124.70;;;30.43;;
21751;SDS011;11038;50.940;20.564;2022-08-01T01:43:12;120.53;;;31.20;;
21751;SDS011;11038;50.940;20.564;2022-08-01T01:44:47;123.50;;;31.87;;
21751;SDS011;11038;50.940;20.564;2022-08-01T01:46:23;76.93;;;28.60;;
21751;SDS011;11038;50.940;20.564;2022-08-01T01:47:58;140.90;;;32.30;;
21751;SDS011;11038;50.940;20.564;2022-08-01T01:49:33;135.97;;;30.67;;
21751;SDS011;11038;50.940;20.564;2022-08-01T01:51:06;208.60;;;34.40;;
21751;SDS011;11038;50.940;20.564;2022-08-01T01:52:40;204.00;;;35.53;;
21751;SDS011;11038;50.940;20.564;2022-08-01T01:54:16;185.13;;;32.33;;
21751;SDS011;11038;50.940;20.564;2022-08-01T01:55:52;162.83;;;30.63;;
21751;SDS011;11038;50.940;20.564;2022-08-01T01:57:29;152.87;;;30.07;;
21751;SDS011;11038;50.940;20.564;2022-08-01T01:59:04;173.63;;;29.83;;
21751;SDS011;11038;50.940;20.564;2022-08-01T02:00:36;206.20;;;33.77;;
21751;SDS011;11038;50.940;20.564;2022-08-01T02:02:12;200.67;;;33.83;;
21751;SDS011;11038;50.940;20.564;2022-08-01T02:03:48;78.90;;;27.20;;
21751;SDS011;11038;50.940;20.564;2022-08-01T02:05:22;115.20;;;30.13;;
21751;SDS011;11038;50.940;20.564;2022-08-01T02:06:58;142.27;;;31.87;;
21751;SDS011;11038;50.940;20.564;2022-08-01T02:08:33;109.50;;;28.80;;
21751;SDS011;11038;50.940;20.564;2022-08-01T02:10:07;188.13;;;33.90;;
21751;SDS011;11038;50.940;20.564;2022-08-01T02:11:41;141.97;;;32.10;;
21751;SDS011;11038;50.940;20.564;2022-08-01T02:13:36;116.20;;;30.73;;
21751;SDS011;11038;50.940;20.564;2022-08-01T02:15:12;168.77;;;31.43;;
21751;SDS011;11038;50.940;20.564;2022-08-01T02:16:48;123.43;;;32.07;;
21751;SDS011;11038;50.940;20.564;2022-08-01T02:18:21;186.13;;;30.97;;
21751;SDS011;11038;50.940;20.564;2022-08-01T02:19:54;183.03;;;33.63;;
21751;SDS011;11038;50.940;20.564;2022-08-01T02:21:28;200.07;;;36.33;;
21751;SDS011;11038;50.940;20.564;2022-08-01T02:23:11;130.13;;;30.70;;
21751;SDS011;11038;50.940;20.564;2022-08-01T02:24:52;145.53;;;29.27;;
21751;SDS011;11038;50.940;20.564;2022-08-01T02:26:44;176.13;;;32.40;;
21751;SDS011;11038;50.940;20.564;2022-08-01T02:28:24;120.63;;;28.00;;
21751;SDS011;11038;50.940;20.564;2022-08-01T02:30:06;66.90;;;24.73;;
21751;SDS011;11038;50.940;20.564;2022-08-01T02:31:43;82.83;;;27.80;;
21751;SDS011;11038;50.940;20.564;2022-08-01T02:33:19;96.53;;;30.93;;
21751;SDS011;11038;50.940;20.564;2022-08-01T02:35:00;83.70;;;26.53;;
21751;SDS011;11038;50.940;20.564;2022-08-01T02:36:39;105.87;;;28.93;;
21751;SDS011;11038;50.940;20.564;2022-08-01T02:38:12;44.13;;;23.60;;
21751;SDS011;11038;50.940;20.564;2022-08-01T02:39:48;40.87;;;22.53;;
21751;SDS011;11038;50.940;20.564;2022-08-01T02:41:26;43.07;;;23.70;;
21751;SDS011;11038;50.940;20.564;2022-08-01T02:43:02;57.93;;;24.27;;
21751;SDS011;11038;50.940;20.564;2022-08-01T02:44:37;41.90;;;23.53;;
21751;SDS011;11038;50.940;20.564;2022-08-01T02:46:20;37.10;;;22.93;;
21751;SDS011;11038;50.940;20.564;2022-08-01T02:48:01;36.57;;;21.33;;
21751;SDS011;11038;50.940;20.564;2022-08-01T02:49:44;38.37;;;23.70;;
21751;SDS011;11038;50.940;20.564;2022-08-01T02:51:24;34.50;;;21.40;;
21751;SDS011;11038;50.940;20.564;2022-08-01T02:52:58;41.67;;;23.87;;
21751;SDS011;11038;50.940;20.564;2022-08-01T02:54:33;78.87;;;26.70;;
21751;SDS011;11038;50.940;20.564;2022-08-01T02:56:08;53.00;;;24.33;;
21751;SDS011;11038;50.940;20.564;2022-08-01T02:57:43;67.90;;;25.50;;
21751;SDS011;11038;50.940;20.564;2022-08-01T02:59:27;59.73;;;23.70;;
21751;SDS011;11038;50.940;20.564;2022-08-01T03:01:03;43.47;;;21.67;;
21751;SDS011;11038;50.940;20.564;2022-08-01T03:02:38;45.73;;;22.10;;
21751;SDS011;11038;50.940;20.564;2022-08-01T03:04:13;69.50;;;25.80;;
21751;SDS011;11038;50.940;20.564;2022-08-01T03:05:50;85.77;;;25.93;;
21751;SDS011;11038;50.940;20.564;2022-08-01T03:07:24;55.20;;;24.13;;
21751;SDS011;11038;50.940;20.564;2022-08-01T03:09:05;66.50;;;25.57;;
21751;SDS011;11038;50.940;20.564;2022-08-01T03:10:39;64.27;;;25.17;;
21751;SDS011;11038;50.940;20.564;2022-08-01T03:12:17;53.10;;;24.07;;
21751;SDS011;11038;50.940;20.564;2022-08-01T03:13:55;40.57;;;23.57;;
21751;SDS011;11038;50.940;20.564;2022-08-01T03:15:31;41.63;;;25.20;;
21751;SDS011;11038;50.940;20.564;2022-08-01T03:17:08;44.27;;;25.13;;
21751;SDS011;11038;50.940;20.564;2022-08-01T03:18:42;37.20;;;22.87;;
21751;SDS011;11038;50.940;20.564;2022-08-01T03:20:18;43.67;;;24.13;;
21751;SDS011;11038;50.940;20.564;2022-08-01T03:21:56;41.87;;;23.30;;
21751;SDS011;11038;50.940;20.564;2022-08-01T03:23:35;35.43;;;23.67;;
21751;SDS011;11038;50.940;20.564;2022-08-01T03:25:09;39.10;;;23.27;;
21751;SDS011;11038;50.940;20.564;2022-08-01T03:26:46;44.03;;;26.43;;
21751;SDS011;11038;50.940;20.564;2022-08-01T03:28:20;38.63;;;24.37;;
21751;SDS011;11038;50.940;20.564;2022-08-01T03:30:00;42.93;;;25.77;;
21751;SDS011;11038;50.940;20.564;2022-08-01T03:31:37;41.17;;;26.60;;
21751;SDS011;11038;50.940;20.564;2022-08-01T03:33:14;42.37;;;25.67;;
21751;SDS011;11038;50.940;20.564;2022-08-01T03:34:47;40.50;;;24.60;;
21751;SDS011;11038;50.940;20.564;2022-08-01T03:36:21;43.13;;;26.47;;
21751;SDS011;11038;50.940;20.564;2022-08-01T03:37:58;46.73;;;27.10;;
21751;SDS011;11038;50.940;20.564;2022-08-01T03:39:52;42.57;;;26.60;;
21751;SDS011;11038;50.940;20.564;2022-08-01T03:41:34;47.63;;;27.43;;
21751;SDS011;11038;50.940;20.564;2022-08-01T03:43:18;36.93;;;24.77;;
21751;SDS011;11038;50.940;20.564;2022-08-01T03:44:59;33.50;;;24.23;;
21751;SDS011;11038;50.940;20.564;2022-08-01T03:46:47;36.97;;;25.43;;
21751;SDS011;11038;50.940;20.564;2022-08-01T03:48:28;34.43;;;23.90;;
21751;SDS011;11038;50.940;20.564;2022-08-01T03:50:06;40.17;;;26.10;;
21751;SDS011;11038;50.940;20.564;2022-08-01T03:51:43;40.30;;;26.80;;
21751;SDS011;11038;50.940;20.564;2022-08-01T03:53:22;42.20;;;25.13;;
21751;SDS011;11038;50.940;20.564;2022-08-01T03:55:01;39.27;;;27.10;;
21751;SDS011;11038;50.940;20.564;2022-08-01T03:56:40;42.27;;;27.67;;
21751;SDS011;11038;50.940;20.564;2022-08-01T03:58:14;36.80;;;26.20;;
21751;SDS011;11038;50.940;20.564;2022-08-01T03:59:48;35.60;;;25.73;;
21751;SDS011;11038;50.940;20.564;2022-08-01T04:01:21;38.43;;;26.67;;
21751;SDS011;11038;50.940;20.564;2022-08-01T04:02:54;45.83;;;27.80;;
21751;SDS011;11038;50.940;20.564;2022-08-01T04:04:27;48.47;;;28.87;;
21751;SDS011;11038;50.940;20.564;2022-08-01T04:06:03;35.87;;;25.80;;
21751;SDS011;11038;50.940;20.564;2022-08-01T04:07:37;39.17;;;26.60;;
21751;SDS011;11038;50.940;20.564;2022-08-01T04:09:11;39.23;;;27.53;;
21751;SDS011;11038;50.940;20.564;2022-08-01T04:10:44;38.67;;;27.10;;
21751;SDS011;11038;50.940;20.564;2022-08-01T04:12:20;42.77;;;25.53;;
21751;SDS011;11038;50.940;20.564;2022-08-01T04:13:54;35.20;;;25.77;;
21751;SDS011;11038;50.940;20.564;2022-08-01T04:15:28;32.23;;;23.63;;
21751;SDS011;11038;50.940;20.564;2022-08-01T04:17:00;33.73;;;24.43;;
21751;SDS011;11038;50.940;20.564;2022-08-01T04:18:33;34.00;;;25.40;;
21751;SDS011;11038;50.940;20.564;2022-08-01T04:20:06;36.00;;;25.50;;
21751;SDS011;11038;50.940;20.564;2022-08-01T04:21:39;32.57;;;23.57;;
21751;SDS011;11038;50.940;20.564;2022-08-01T04:23:11;37.17;;;25.57;;
21751;SDS011;11038;50.940;20.564;2022-08-01T04:24:48;34.17;;;24.80;;
21751;SDS011;11038;50.940;20.564;2022-08-01T04:26:27;36.23;;;25.20;;
21751;SDS011;11038;50.940;20.564;2022-08-01T04:28:02;32.57;;;24.30;;
21751;SDS011;11038;50.940;20.564;2022-08-01T04:29:42;37.43;;;25.33;;
21751;SDS011;11038;50.940;20.564;2022-08-01T04:31:16;32.50;;;24.53;;
21751;SDS011;11038;50.940;20.564;2022-08-01T04:32:50;33.80;;;24.67;;
21751;SDS011;11038;50.940;20.564;2022-08-01T04:34:28;35.40;;;25.90;;
21751;SDS011;11038;50.940;20.564;2022-08-01T04:36:04;34.53;;;24.57;;
21751;SDS011;11038;50.940;20.564;2022-08-01T04:37:42;33.97;;;22.93;;
21751;SDS011;11038;50.940;20.564;2022-08-01T04:39:17;29.83;;;22.83;;
21751;SDS011;11038;50.940;20.564;2022-08-01T04:40:53;35.00;;;23.07;;
21751;SDS011;11038;50.940;20.564;2022-08-01T04:42:27;32.03;;;23.77;;
21751;SDS011;11038;50.940;20.564;2022-08-01T04:44:04;29.10;;;22.17;;
21751;SDS011;11038;50.940;20.564;2022-08-01T04:45:38;29.47;;;21.83;;
21751;SDS011;11038;50.940;20.564;2022-08-01T04:47:11;33.37;;;22.53;;
21751;SDS011;11038;50.940;20.564;2022-08-01T04:48:45;27.73;;;21.57;;
21751;SDS011;11038;50.940;20.564;2022-08-01T04:50:18;29.80;;;22.30;;
21751;SDS011;11038;50.940;20.564;2022-08-01T04:51:53;31.23;;;23.70;;
21751;SDS011;11038;50.940;20.564;2022-08-01T04:53:31;31.43;;;23.60;;
21751;SDS011;11038;50.940;20.564;2022-08-01T04:55:04;33.50;;;22.60;;
21751;SDS011;11038;50.940;20.564;2022-08-01T04:56:40;27.90;;;21.87;;
21751;SDS011;11038;50.940;20.564;2022-08-01T04:58:13;26.97;;;22.97;;
21751;SDS011;11038;50.940;20.564;2022-08-01T04:59:49;31.73;;;21.70;;
21751;SDS011;11038;50.940;20.564;2022-08-01T05:01:28;27.77;;;20.90;;
21751;SDS011;11038;50.940;20.564;2022-08-01T05:03:00;26.33;;;20.53;;
21751;SDS011;11038;50.940;20.564;2022-08-01T05:04:32;27.33;;;19.43;;
21751;SDS011;11038;50.940;20.564;2022-08-01T05:06:05;20.50;;;17.97;;
21751;SDS011;11038;50.940;20.564;2022-08-01T05:07:38;24.67;;;17.53;;
21751;SDS011;11038;50.940;20.564;2022-08-01T05:09:15;22.00;;;18.43;;
21751;SDS011;11038;50.940;20.564;2022-08-01T05:10:48;23.77;;;19.20;;
21751;SDS011;11038;50.940;20.564;2022-08-01T05:12:20;23.03;;;18.30;;
21751;SDS011;11038;50.940;20.564;2022-08-01T05:13:52;19.03;;;16.47;;
21751;SDS011;11038;50.940;20.564;2022-08-01T05:15:25;19.00;;;15.70;;
21751;SDS011;11038;50.940;20.564;2022-08-01T05:16:58;17.90;;;14.87;;
21751;SDS011;11038;50.940;20.564;2022-08-01T05:18:35;19.47;;;15.80;;
21751;SDS011;11038;50.940;20.564;2022-08-01T05:20:08;21.97;;;17.13;;
21751;SDS011;11038;50.940;20.564;2022-08-01T05:21:41;20.67;;;16.03;;
21751;SDS011;11038;50.940;20.564;2022-08-01T05:23:13;20.40;;;16.57;;
21751;SDS011;11038;50.940;20.564;2022-08-01T05:25:05;21.87;;;16.97;;
21751;SDS011;11038;50.940;20.564;2022-08-01T05:26:38;20.10;;;16.23;;
21751;SDS011;11038;50.940;20.564;2022-08-01T05:28:11;24.33;;;17.00;;
21751;SDS011;11038;50.940;20.564;2022-08-01T05:29:49;22.43;;;16.80;;
21751;SDS011;11038;50.940;20.564;2022-08-01T05:31:22;19.17;;;14.97;;
21751;SDS011;11038;50.940;20.564;2022-08-01T05:32:54;15.87;;;13.97;;
21751;SDS011;11038;50.940;20.564;2022-08-01T05:34:27;17.70;;;14.97;;
21751;SDS011;11038;50.940;20.564;2022-08-01T05:36:00;19.83;;;15.47;;
21751;SDS011;11038;50.940;20.564;2022-08-01T05:37:33;17.80;;;15.37;;
21751;SDS011;11038;50.940;20.564;2022-08-01T05:39:05;17.27;;;14.43;;
21751;SDS011;11038;50.940;20.564;2022-08-01T05:40:37;16.60;;;13.67;;
21751;SDS011;11038;50.940;20.564;2022-08-01T05:42:10;16.27;;;13.27;;
21751;SDS011;11038;50.940;20.564;2022-08-01T05:43:42;18.13;;;12.90;;
21751;SDS011;11038;50.940;20.564;2022-08-01T05:45:14;13.83;;;11.33;;
21751;SDS011;11038;50.940;20.564;2022-08-01T05:46:46;15.23;;;11.77;;
21751;SDS011;11038;50.940;20.564;2022-08-01T05:48:19;17.70;;;12.60;;
21751;SDS011;11038;50.940;20.564;2022-08-01T05:49:51;15.03;;;12.07;;
21751;SDS011;11038;50.940;20.564;2022-08-01T05:51:24;16.73;;;12.73;;
21751;SDS011;11038;50.940;20.564;2022-08-01T05:52:56;14.87;;;12.73;;
21751;SDS011;11038;50.940;20.564;2022-08-01T05:54:29;13.67;;;11.53;;
21751;SDS011;11038;50.940;20.564;2022-08-01T05:56:02;14.50;;;11.27;;
21751;SDS011;11038;50.940;20.564;2022-08-01T05:57:34;15.47;;;11.37;;
21751;SDS011;11038;50.940;20.564;2022-08-01T05:59:09;13.63;;;11.87;;
21751;SDS011;11038;50.940;20.564;2022-08-01T06:00:42;14.80;;;11.93;;
21751;SDS011;11038;50.940;20.564;2022-08-01T06:02:14;14.47;;;11.87;;
21751;SDS011;11038;50.940;20.564;2022-08-01T06:03:46;15.87;;;12.10;;
21751;SDS011;11038;50.940;20.564;2022-08-01T06:05:18;13.83;;;11.87;;
21751;SDS011;11038;50.940;20.564;2022-08-01T06:06:51;15.80;;;11.90;;
21751;SDS011;11038;50.940;20.564;2022-08-01T06:08:23;15.63;;;12.20;;
21751;SDS011;11038;50.940;20.564;2022-08-01T06:09:55;17.13;;;12.30;;
21751;SDS011;11038;50.940;20.564;2022-08-01T06:11:27;16.07;;;11.20;;
21751;SDS011;11038;50.940;20.564;2022-08-01T06:13:00;13.83;;;11.20;;
21751;SDS011;11038;50.940;20.564;2022-08-01T06:14:34;13.77;;;11.27;;
21751;SDS011;11038;50.940;20.564;2022-08-01T06:16:06;13.73;;;11.70;;
21751;SDS011;11038;50.940;20.564;2022-08-01T06:17:39;16.30;;;11.23;;
21751;SDS011;11038;50.940;20.564;2022-08-01T06:19:12;14.43;;;11.63;;
21751;SDS011;11038;50.940;20.564;2022-08-01T06:20:45;14.63;;;10.90;;
21751;SDS011;11038;50.940;20.564;2022-08-01T06:22:17;16.03;;;11.40;;
21751;SDS011;11038;50.940;20.564;2022-08-01T06:23:49;16.07;;;12.50;;
21751;SDS011;11038;50.940;20.564;2022-08-01T06:25:22;14.07;;;11.10;;
21751;SDS011;11038;50.940;20.564;2022-08-01T06:26:54;13.57;;;11.37;;
21751;SDS011;11038;50.940;20.564;2022-08-01T06:28:26;13.50;;;10.77;;
21751;SDS011;11038;50.940;20.564;2022-08-01T06:29:59;17.63;;;10.37;;
21751;SDS011;11038;50.940;20.564;2022-08-01T06:31:32;13.63;;;11.20;;
21751;SDS011;11038;50.940;20.564;2022-08-01T06:33:04;11.37;;;9.43;;
21751;SDS011;11038;50.940;20.564;2022-08-01T06:34:37;13.13;;;10.23;;
21751;SDS011;11038;50.940;20.564;2022-08-01T06:36:09;11.90;;;9.27;;
21751;SDS011;11038;50.940;20.564;2022-08-01T06:37:41;16.00;;;9.73;;
21751;SDS011;11038;50.940;20.564;2022-08-01T06:39:14;14.40;;;9.50;;
21751;SDS011;11038;50.940;20.564;2022-08-01T06:40:46;14.43;;;9.10;;
21751;SDS011;11038;50.940;20.564;2022-08-01T06:42:18;16.23;;;9.83;;
21751;SDS011;11038;50.940;20.564;2022-08-01T06:43:50;9.80;;;8.30;;
21751;SDS011;11038;50.940;20.564;2022-08-01T06:45:23;11.40;;;8.47;;
21751;SDS011;11038;50.940;20.564;2022-08-01T06:46:57;12.20;;;8.60;;
21751;SDS011;11038;50.940;20.564;2022-08-01T06:48:29;14.93;;;8.57;;
21751;SDS011;11038;50.940;20.564;2022-08-01T06:50:02;11.20;;;8.17;;
21751;SDS011;11038;50.940;20.564;2022-08-01T06:51:40;12.13;;;8.80;;
21751;SDS011;11038;50.940;20.564;2022-08-01T06:53:12;11.70;;;8.60;;
21751;SDS011;11038;50.940;20.564;2022-08-01T06:54:44;11.63;;;8.47;;
21751;SDS011;11038;50.940;20.564;2022-08-01T06:56:17;12.70;;;8.03;;
21751;SDS011;11038;50.940;20.564;2022-08-01T06:57:50;11.60;;;8.40;;
21751;SDS011;11038;50.940;20.564;2022-08-01T06:59:24;12.37;;;8.30;;
21751;SDS011;11038;50.940;20.564;2022-08-01T07:00:56;12.67;;;8.43;;
21751;SDS011;11038;50.940;20.564;2022-08-01T07:02:29;11.23;;;7.40;;
21751;SDS011;11038;50.940;20.564;2022-08-01T07:04:02;9.43;;;7.70;;
21751;SDS011;11038;50.940;20.564;2022-08-01T07:05:35;12.40;;;7.57;;
21751;SDS011;11038;50.940;20.564;2022-08-01T07:07:07;12.67;;;7.50;;
21751;SDS011;11038;50.940;20.564;2022-08-01T07:08:39;10.40;;;6.97;;
21751;SDS011;11038;50.940;20.564;2022-08-01T07:10:11;8.52;;;6.43;;
21751;SDS011;11038;50.940;20.564;2022-08-01T07:11:44;10.15;;;6.88;;
21751;SDS011;11038;50.940;20.564;2022-08-01T07:13:16;12.27;;;6.68;;
21751;SDS011;11038;50.940;20.564;2022-08-01T07:14:52;14.02;;;7.20;;
21751;SDS011;11038;50.940;20.564;2022-08-01T07:16:24;10.30;;;6.40;;
21751;SDS011;11038;50.940;20.564;2022-08-01T07:17:57;8.82;;;6.22;;
21751;SDS011;11038;50.940;20.564;2022-08-01T07:19:32;8.68;;;6.07;;
21751;SDS011;11038;50.940;20.564;2022-08-01T07:21:08;9.40;;;6.53;;
21751;SDS011;11038;50.940;20.564;2022-08-01T07:23:01;10.93;;;6.30;;
21751;SDS011;11038;50.940;20.564;2022-08-01T07:24:33;10.77;;;6.43;;
21751;SDS011;11038;50.940;20.564;2022-08-01T07:26:06;8.32;;;6.30;;
21751;SDS011;11038;50.940;20.564;2022-08-01T07:27:38;9.85;;;5.78;;
21751;SDS011;11038;50.940;20.564;2022-08-01T07:29:11;9.90;;;5.55;;
21751;SDS011;11038;50.940;20.564;2022-08-01T07:30:43;8.25;;;5.57;;
21751;SDS011;11038;50.940;20.564;2022-08-01T07:32:15;10.20;;;4.82;;
21751;SDS011;11038;50.940;20.564;2022-08-01T07:33:48;7.75;;;4.80;;
21751;SDS011;11038;50.940;20.564;2022-08-01T07:35:22;8.75;;;4.75;;
21751;SDS011;11038;50.940;20.564;2022-08-01T07:36:54;10.50;;;5.20;;
21751;SDS011;11038;50.940;20.564;2022-08-01T07:38:26;9.45;;;4.93;;
21751;SDS011;11038;50.940;20.564;2022-08-01T07:39:59;6.10;;;4.22;;
21751;SDS011;11038;50.940;20.564;2022-08-01T07:41:31;7.97;;;4.80;;
21751;SDS011;11038;50.940;20.564;2022-08-01T07:43:23;7.13;;;4.82;;
21751;SDS011;11038;50.940;20.564;2022-08-01T07:44:55;7.68;;;5.03;;
21751;SDS011;11038;50.940;20.564;2022-08-01T07:46:28;8.15;;;4.97;;
21751;SDS011;11038;50.940;20.564;2022-08-01T07:48:05;9.57;;;5.70;;
21751;SDS011;11038;50.940;20.564;2022-08-01T07:49:39;7.22;;;4.63;;
21751;SDS011;11038;50.940;20.564;2022-08-01T07:51:11;6.88;;;4.93;;
21751;SDS011;11038;50.940;20.564;2022-08-01T07:52:44;9.50;;;4.90;;
21751;SDS011;11038;50.940;20.564;2022-08-01T07:54:17;9.25;;;5.00;;
21751;SDS011;11038;50.940;20.564;2022-08-01T07:55:49;13.05;;;4.57;;
21751;SDS011;11038;50.940;20.564;2022-08-01T07:57:22;7.25;;;4.60;;
21751;SDS011;11038;50.940;20.564;2022-08-01T07:58:55;8.98;;;5.30;;
21751;SDS011;11038;50.940;20.564;2022-08-01T08:00:28;7.70;;;4.75;;
21751;SDS011;11038;50.940;20.564;2022-08-01T08:02:00;7.90;;;4.55;;
21751;SDS011;11038;50.940;20.564;2022-08-01T08:03:33;8.60;;;4.88;;
21751;SDS011;11038;50.940;20.564;2022-08-01T08:05:05;8.25;;;5.20;;
21751;SDS011;11038;50.940;20.564;2022-08-01T08:06:38;7.32;;;4.72;;
21751;SDS011;11038;50.940;20.564;2022-08-01T08:08:12;8.48;;;4.82;;
21751;SDS011;11038;50.940;20.564;2022-08-01T08:09:46;7.53;;;4.50;;
21751;SDS011;11038;50.940;20.564;2022-08-01T08:11:21;8.27;;;4.90;;
21751;SDS011;11038;50.940;20.564;2022-08-01T08:12:54;7.43;;;5.00;;
21751;SDS011;11038;50.940;20.564;2022-08-01T08:14:26;6.65;;;4.55;;
21751;SDS011;11038;50.940;20.564;2022-08-01T08:16:03;8.30;;;4.55;;
21751;SDS011;11038;50.940;20.564;2022-08-01T08:17:35;8.07;;;5.25;;
21751;SDS011;11038;50.940;20.564;2022-08-01T08:19:08;9.30;;;4.90;;
21751;SDS011;11038;50.940;20.564;2022-08-01T08:20:41;9.35;;;4.85;;
21751;SDS011;11038;50.940;20.564;2022-08-01T08:22:14;7.10;;;4.22;;
21751;SDS011;11038;50.940;20.564;2022-08-01T08:23:46;7.22;;;4.68;;
21751;SDS011;11038;50.940;20.564;2022-08-01T08:25:39;8.77;;;4.43;;
21751;SDS011;11038;50.940;20.564;2022-08-01T08:27:12;8.68;;;4.13;;
21751;SDS011;11038;50.940;20.564;2022-08-01T08:28:44;6.40;;;4.05;;
21751;SDS011;11038;50.940;20.564;2022-08-01T08:30:17;6.68;;;4.13;;
21751;SDS011;11038;50.940;20.564;2022-08-01T08:31:52;6.20;;;4.10;;
21751;SDS011;11038;50.940;20.564;2022-08-01T08:33:34;7.88;;;3.97;;
21751;SDS011;11038;50.940;20.564;2022-08-01T08:35:06;10.88;;;4.57;;
21751;SDS011;11038;50.940;20.564;2022-08-01T08:36:42;8.25;;;4.38;;
21751;SDS011;11038;50.940;20.564;2022-08-01T08:38:18;9.23;;;4.43;;
21751;SDS011;11038;50.940;20.564;2022-08-01T08:39:58;6.35;;;3.95;;
21751;SDS011;11038;50.940;20.564;2022-08-01T08:41:34;7.63;;;3.75;;
21751;SDS011;11038;50.940;20.564;2022-08-01T08:43:08;6.22;;;3.58;;
21751;SDS011;11038;50.940;20.564;2022-08-01T08:44:42;11.48;;;3.95;;
21751;SDS011;11038;50.940;20.564;2022-08-01T08:46:15;7.13;;;3.50;;
21751;SDS011;11038;50.940;20.564;2022-08-01T08:47:58;6.13;;;3.45;;
21751;SDS011;11038;50.940;20.564;2022-08-01T08:49:32;6.97;;;3.20;;
21751;SDS011;11038;50.940;20.564;2022-08-01T08:51:07;6.10;;;3.10;;
21751;SDS011;11038;50.940;20.564;2022-08-01T08:52:42;5.93;;;3.30;;
21751;SDS011;11038;50.940;20.564;2022-08-01T08:54:18;6.68;;;3.28;;
21751;SDS011;11038;50.940;20.564;2022-08-01T08:56:02;7.32;;;2.97;;
21751;SDS011;11038;50.940;20.564;2022-08-01T08:57:39;8.43;;;3.28;;
21751;SDS011;11038;50.940;20.564;2022-08-01T08:59:15;4.80;;;2.90;;
21751;SDS011;11038;50.940;20.564;2022-08-01T09:00:47;7.15;;;3.50;;
21751;SDS011;11038;50.940;20.564;2022-08-01T09:02:21;5.00;;;2.67;;
21751;SDS011;11038;50.940;20.564;2022-08-01T09:03:53;3.97;;;2.55;;
21751;SDS011;11038;50.940;20.564;2022-08-01T09:05:26;5.50;;;2.70;;
21751;SDS011;11038;50.940;20.564;2022-08-01T09:07:09;8.85;;;2.90;;
21751;SDS011;11038;50.940;20.564;2022-08-01T09:08:43;5.50;;;2.63;;
21751;SDS011;11038;50.940;20.564;2022-08-01T09:10:15;4.65;;;2.70;;
21751;SDS011;11038;50.940;20.564;2022-08-01T09:11:47;5.35;;;2.65;;
21751;SDS011;11038;50.940;20.564;2022-08-01T09:13:35;9.77;;;2.97;;
21751;SDS011;11038;50.940;20.564;2022-08-01T09:15:15;6.90;;;2.90;;
21751;SDS011;11038;50.940;20.564;2022-08-01T09:16:58;5.80;;;2.50;;
21751;SDS011;11038;50.940;20.564;2022-08-01T09:18:40;5.68;;;2.88;;
21751;SDS011;11038;50.940;20.564;2022-08-01T09:20:23;9.10;;;2.70;;
21751;SDS011;11038;50.940;20.564;2022-08-01T09:21:56;7.15;;;2.92;;
21751;SDS011;11038;50.940;20.564;2022-08-01T09:23:34;5.03;;;2.42;;